Time;durP1;ratioP1;P1;durP2;ratioP2;P2;SDS_P1;SDS_P2;PMS_P1;PMS_P2;Temp;Humidity;BMP_temperature;BMP_pressure;BME280_temperature;BME280_humidity;BME280_pressure;Samples;Min_cycle;Max_cycle;Signal;HPM_P1;HPM_P2
2022/04/10 00:00:55;;;;;;;5.27;2.70;;;;;;;;;;5034735;28;20783;-77
2022/04/10 00:03:22;;;;;;;3.47;2.60;;;;;;;;;;5034511;28;20408;-71
2022/04/10 00:05:49;;;;;;;5.93;3.33;;;;;;;;;;5034453;28;20459;-70
2022/04/10 00:08:15;;;;;;;5.37;2.77;;;;;;;;;;5034530;28;20903;-80
2022/04/10 00:10:41;;;;;;;3.03;2.73;;;;;;;;;;5034418;28;20925;-68
2022/04/10 00:13:07;;;;;;;6.70;4.50;;;;;;;;;;5033062;28;20971;-70
2022/04/10 00:15:34;;;;;;;3.97;3.17;;;;;;;;;;5034276;28;20394;-82
2022/04/10 00:18:00;;;;;;;5.00;3.20;;;;;;;;;;5034440;28;20405;-69
2022/04/10 00:20:26;;;;;;;3.40;3.10;;;;;;;;;;5034296;28;20999;-81
2022/04/10 00:22:52;;;;;;;3.70;2.90;;;;;;;;;;5034234;28;20402;-81
2022/04/10 00:25:19;;;;;;;5.57;3.33;;;;;;;;;;5032948;28;20432;-79
2022/04/10 00:27:45;;;;;;;4.93;3.00;;;;;;;;;;5034236;28;20465;-80
2022/04/10 00:30:13;;;;;;;8.63;3.27;;;;;;;;;;5032884;28;20415;-82
2022/04/10 00:32:39;;;;;;;7.23;2.83;;;;;;;;;;5034114;28;20435;-80
2022/04/10 00:35:05;;;;;;;3.57;2.70;;;;;;;;;;5033914;28;20415;-80
2022/04/10 00:37:32;;;;;;;4.47;3.10;;;;;;;;;;5033925;28;20418;-79
2022/04/10 00:39:58;;;;;;;3.73;3.40;;;;;;;;;;5032638;28;20537;-73
2022/04/10 00:42:30;;;;;;;3.43;3.13;;;;;;;;;;5033850;28;20896;-72
2022/04/10 00:44:56;;;;;;;3.83;3.13;;;;;;;;;;5033798;28;20910;-81
2022/04/10 00:47:22;;;;;;;5.50;3.30;;;;;;;;;;5033716;28;20466;-81
2022/04/10 00:49:48;;;;;;;3.70;3.30;;;;;;;;;;5033747;28;20396;-76
2022/04/10 00:52:15;;;;;;;6.43;2.97;;;;;;;;;;5033672;28;20475;-80
2022/04/10 00:54:41;;;;;;;5.57;3.20;;;;;;;;;;5033431;28;20450;-77
2022/04/10 00:57:07;;;;;;;5.23;2.90;;;;;;;;;;5033606;28;20424;-79
2022/04/10 00:59:33;;;;;;;6.03;3.50;;;;;;;;;;5033563;28;20458;-78
2022/04/10 01:01:59;;;;;;;5.97;3.13;;;;;;;;;;5033594;28;21123;-81
2022/04/10 01:04:25;;;;;;;3.70;3.13;;;;;;;;;;5033173;28;20490;-77
2022/04/10 01:06:53;;;;;;;5.07;3.10;;;;;;;;;;5033440;28;20526;-81
2022/04/10 01:09:20;;;;;;;4.60;2.93;;;;;;;;;;5033556;28;20412;-81
2022/04/10 01:11:46;;;;;;;3.57;2.80;;;;;;;;;;5033144;28;20537;-77
2022/04/10 01:14:13;;;;;;;5.20;3.10;;;;;;;;;;5033343;28;20503;-80
2022/04/10 01:16:41;;;;;;;3.50;3.20;;;;;;;;;;5031981;28;20502;-80
2022/04/10 01:19:08;;;;;;;3.37;3.07;;;;;;;;;;5033193;28;20418;-81
2022/04/10 01:21:38;;;;;;;10.77;3.50;;;;;;;;;;5033267;28;20478;-80
2022/04/10 01:24:04;;;;;;;4.03;3.03;;;;;;;;;;5031923;28;20435;-81
2022/04/10 01:26:31;;;;;;;3.43;3.00;;;;;;;;;;5033265;28;20427;-81
2022/04/10 01:29:07;;;;;;;3.63;3.33;;;;;;;;;;5031894;28;20414;-80
2022/04/10 01:31:34;;;;;;;4.03;3.17;;;;;;;;;;5033119;28;20523;-80
2022/04/10 01:34:01;;;;;;;4.57;2.93;;;;;;;;;;5031979;28;20415;-78
2022/04/10 01:36:28;;;;;;;3.83;2.87;;;;;;;;;;5032809;28;20419;-79
2022/04/10 01:38:55;;;;;;;4.80;3.10;;;;;;;;;;5033221;28;20411;-76
2022/04/10 01:41:22;;;;;;;3.83;3.40;;;;;;;;;;5033060;28;20954;-78
2022/04/10 01:43:49;;;;;;;4.63;3.20;;;;;;;;;;5031765;28;20886;-78
2022/04/10 01:46:15;;;;;;;5.27;3.23;;;;;;;;;;5033001;28;20425;-79
2022/04/10 01:48:41;;;;;;;6.70;3.60;;;;;;;;;;5031851;28;20796;-80
2022/04/10 01:51:08;;;;;;;6.97;3.27;;;;;;;;;;5033023;28;20464;-79
2022/04/10 01:53:34;;;;;;;3.50;2.80;;;;;;;;;;5032904;28;20404;-79
2022/04/10 01:56:00;;;;;;;6.00;3.60;;;;;;;;;;5032863;28;20454;-80
2022/04/10 01:58:27;;;;;;;6.57;3.30;;;;;;;;;;5032910;28;20398;-71
2022/04/10 02:00:53;;;;;;;7.13;4.00;;;;;;;;;;5033151;28;20917;-78
2022/04/10 02:03:19;;;;;;;5.17;3.13;;;;;;;;;;5036784;28;20415;-79
2022/04/10 02:05:45;;;;;;;6.90;3.40;;;;;;;;;;5035349;28;20501;-79
2022/04/10 02:08:13;;;;;;;6.50;3.33;;;;;;;;;;5036701;28;20779;-79
2022/04/10 02:10:39;;;;;;;10.70;4.40;;;;;;;;;;5036642;28;20466;-77
2022/04/10 02:13:05;;;;;;;4.10;3.70;;;;;;;;;;5036600;28;20410;-79
2022/04/10 02:15:31;;;;;;;5.93;3.57;;;;;;;;;;5035293;28;20403;-79
2022/04/10 02:17:57;;;;;;;4.70;3.60;;;;;;;;;;5036672;28;20459;-75
2022/04/10 02:20:23;;;;;;;5.30;3.37;;;;;;;;;;5036762;28;20408;-80
2022/04/10 02:22:53;;;;;;;4.93;3.73;;;;;;;;;;5036502;28;20400;-76
2022/04/10 02:25:19;;;;;;;5.37;3.53;;;;;;;;;;5035059;28;20428;-79
2022/04/10 02:27:45;;;;;;;5.00;3.83;;;;;;;;;;5035201;28;20506;-79
2022/04/10 02:30:12;;;;;;;5.40;3.83;;;;;;;;;;5035025;28;20932;-79
2022/04/10 02:32:39;;;;;;;8.00;4.30;;;;;;;;;;5036365;28;20450;-80
2022/04/10 02:35:05;;;;;;;5.23;3.83;;;;;;;;;;5034821;28;20416;-79
2022/04/10 02:37:31;;;;;;;5.33;4.00;;;;;;;;;;5036109;28;20422;-79
2022/04/10 02:39:57;;;;;;;6.00;3.80;;;;;;;;;;5036186;28;20416;-78
2022/04/10 02:42:23;;;;;;;5.50;4.00;;;;;;;;;;5036151;28;20956;-79
2022/04/10 02:44:49;;;;;;;5.33;3.73;;;;;;;;;;5036031;28;20447;-76
2022/04/10 02:47:15;;;;;;;3.57;3.27;;;;;;;;;;5036011;28;20407;-74
2022/04/10 02:49:41;;;;;;;4.80;3.97;;;;;;;;;;5035969;28;20496;-78
2022/04/10 02:52:08;;;;;;;4.63;3.80;;;;;;;;;;5035844;28;20862;-79
2022/04/10 02:54:34;;;;;;;4.03;3.63;;;;;;;;;;5035930;28;20419;-79
2022/04/10 02:57:00;;;;;;;4.67;4.27;;;;;;;;;;5035703;28;20431;-72
2022/04/10 02:59:26;;;;;;;6.93;3.80;;;;;;;;;;5035799;28;20899;-79
2022/04/10 03:01:52;;;;;;;6.43;4.10;;;;;;;;;;5035714;28;20473;-68
2022/04/10 03:04:18;;;;;;;5.97;3.70;;;;;;;;;;5035486;28;20914;-79
2022/04/10 03:06:44;;;;;;;7.43;4.20;;;;;;;;;;5035635;28;20493;-75
2022/04/10 03:09:10;;;;;;;8.13;3.97;;;;;;;;;;5035805;28;20503;-79
2022/04/10 03:11:36;;;;;;;6.33;4.07;;;;;;;;;;5034202;28;20629;-78
2022/04/10 03:14:03;;;;;;;5.33;4.30;;;;;;;;;;5033902;28;20475;-78
2022/04/10 03:16:29;;;;;;;4.57;3.77;;;;;;;;;;5035433;28;20407;-79
2022/04/10 03:18:55;;;;;;;6.27;5.13;;;;;;;;;;5035400;28;20458;-69
2022/04/10 03:21:21;;;;;;;5.20;4.53;;;;;;;;;;5035241;28;20899;-78
2022/04/10 03:23:47;;;;;;;6.43;4.50;;;;;;;;;;5035238;28;20439;-69
2022/04/10 03:26:13;;;;;;;4.80;4.13;;;;;;;;;;5035218;28;20396;-78
2022/04/10 03:28:39;;;;;;;6.03;4.53;;;;;;;;;;5035240;28;20423;-70
2022/04/10 03:31:05;;;;;;;5.27;4.37;;;;;;;;;;5035065;28;20466;-72
2022/04/10 03:33:31;;;;;;;4.93;4.33;;;;;;;;;;5035155;28;20416;-79
2022/04/10 03:35:58;;;;;;;6.80;4.50;;;;;;;;;;5035129;28;20395;-79
2022/04/10 03:38:24;;;;;;;8.73;4.83;;;;;;;;;;5035184;28;20412;-79
2022/04/10 03:40:50;;;;;;;7.00;5.07;;;;;;;;;;5035092;28;20394;-79
2022/04/10 03:43:16;;;;;;;6.20;4.53;;;;;;;;;;5035013;28;20404;-74
2022/04/10 03:45:42;;;;;;;4.90;4.07;;;;;;;;;;5035027;28;20878;-80
2022/04/10 03:48:08;;;;;;;6.77;5.03;;;;;;;;;;5034941;28;20411;-79
2022/04/10 03:50:35;;;;;;;5.53;4.60;;;;;;;;;;5034837;28;20459;-79
2022/04/10 03:53:01;;;;;;;7.30;4.67;;;;;;;;;;5034798;28;20417;-80
2022/04/10 03:55:27;;;;;;;5.53;5.03;;;;;;;;;;5033417;28;20431;-75
2022/04/10 03:57:53;;;;;;;4.90;4.40;;;;;;;;;;5034748;28;20837;-79
2022/04/10 04:00:20;;;;;;;5.40;4.73;;;;;;;;;;5034728;28;20388;-79
2022/04/10 04:02:46;;;;;;;5.90;5.07;;;;;;;;;;5033480;28;20408;-75
2022/04/10 04:05:12;;;;;;;6.10;5.03;;;;;;;;;;5034386;28;20460;-78
2022/04/10 04:07:39;;;;;;;6.60;5.47;;;;;;;;;;5034663;28;20507;-77
2022/04/10 04:10:06;;;;;;;7.30;5.70;;;;;;;;;;5034527;28;20501;-78
2022/04/10 04:12:32;;;;;;;10.27;5.27;;;;;;;;;;5034538;28;20466;-78
2022/04/10 04:14:58;;;;;;;7.77;4.87;;;;;;;;;;5034383;28;20418;-77
2022/04/10 04:17:24;;;;;;;8.53;5.33;;;;;;;;;;5033189;28;20828;-77
2022/04/10 04:19:51;;;;;;;8.47;5.00;;;;;;;;;;5034447;28;20424;-77
2022/04/10 04:22:20;;;;;;;7.30;4.83;;;;;;;;;;5034406;28;20783;-79
2022/04/10 04:24:46;;;;;;;10.03;5.83;;;;;;;;;;5033847;28;20933;-78
2022/04/10 04:27:12;;;;;;;5.97;5.40;;;;;;;;;;5034133;28;20446;-79
2022/04/10 04:29:38;;;;;;;8.30;5.10;;;;;;;;;;5032889;28;20403;-78
2022/04/10 04:32:04;;;;;;;8.03;4.90;;;;;;;;;;5034066;28;20479;-76
2022/04/10 04:34:30;;;;;;;5.83;5.23;;;;;;;;;;5033930;28;20466;-74
2022/04/10 04:36:56;;;;;;;6.03;4.90;;;;;;;;;;5034086;28;20406;-78
2022/04/10 04:39:22;;;;;;;6.50;5.40;;;;;;;;;;5032660;28;20569;-79
2022/04/10 04:41:48;;;;;;;6.87;5.53;;;;;;;;;;5033937;28;20906;-72
2022/04/10 04:44:14;;;;;;;6.73;5.50;;;;;;;;;;5033826;28;20416;-72
2022/04/10 04:46:40;;;;;;;6.30;4.50;;;;;;;;;;5033839;28;20460;-73
2022/04/10 04:49:06;;;;;;;14.90;5.57;;;;;;;;;;5033818;28;20752;-79
2022/04/10 04:51:34;;;;;;;6.30;5.67;;;;;;;;;;5033730;28;20455;-74
2022/04/10 04:54:02;;;;;;;6.40;5.30;;;;;;;;;;5033462;28;20432;-78
2022/04/10 04:56:28;;;;;;;6.10;5.07;;;;;;;;;;5033546;28;20439;-69
2022/04/10 04:58:54;;;;;;;6.27;4.70;;;;;;;;;;5033602;28;20446;-79
2022/04/10 05:01:20;;;;;;;7.60;5.33;;;;;;;;;;5033596;28;20412;-69
2022/04/10 05:03:46;;;;;;;9.43;5.60;;;;;;;;;;5033328;28;20505;-77
2022/04/10 05:06:12;;;;;;;6.70;5.77;;;;;;;;;;5033480;28;20416;-77
2022/04/10 05:08:39;;;;;;;7.27;5.47;;;;;;;;;;5033495;28;20406;-69
2022/04/10 05:11:08;;;;;;;8.73;5.50;;;;;;;;;;5033493;28;21018;-68
2022/04/10 05:13:35;;;;;;;7.53;5.60;;;;;;;;;;5033344;28;20408;-82
2022/04/10 05:16:01;;;;;;;6.80;5.13;;;;;;;;;;5033487;28;20408;-86
2022/04/10 05:18:27;;;;;;;5.77;4.70;;;;;;;;;;5033528;28;20411;-83
2022/04/10 05:20:53;;;;;;;6.27;5.67;;;;;;;;;;5033478;28;20466;-82
2022/04/10 05:23:20;;;;;;;9.60;6.20;;;;;;;;;;5033405;28;20402;-80
2022/04/10 05:25:47;;;;;;;7.83;6.10;;;;;;;;;;5033214;28;20465;-76
2022/04/10 05:28:14;;;;;;;10.20;5.23;;;;;;;;;;5033820;28;20419;-83
2022/04/10 05:30:40;;;;;;;6.83;5.13;;;;;;;;;;5033488;28;20454;-81
2022/04/10 05:33:07;;;;;;;6.60;5.70;;;;;;;;;;5031957;28;20421;-79
2022/04/10 05:35:33;;;;;;;7.60;5.47;;;;;;;;;;5032815;28;20412;-83
2022/04/10 05:37:59;;;;;;;9.47;5.67;;;;;;;;;;5033335;28;20404;-78
2022/04/10 05:40:26;;;;;;;6.27;5.37;;;;;;;;;;5033140;28;20411;-79
2022/04/10 05:42:52;;;;;;;5.90;4.80;;;;;;;;;;5033193;28;20411;-75
2022/04/10 05:45:17;;;;;;;7.93;5.20;;;;;;;;;;5033183;28;20414;-75
2022/04/10 05:47:44;;;;;;;4.93;4.47;;;;;;;;;;5033052;28;20944;-79
2022/04/10 05:50:10;;;;;;;5.10;4.57;;;;;;;;;;5032934;28;20419;-75
2022/04/10 05:52:40;;;;;;;6.20;4.70;;;;;;;;;;5032810;28;20455;-68
2022/04/10 05:55:07;;;;;;;6.67;5.33;;;;;;;;;;5032733;28;20431;-76
2022/04/10 05:57:33;;;;;;;6.30;5.17;;;;;;;;;;5032909;28;20454;-78
2022/04/10 05:59:59;;;;;;;6.60;4.57;;;;;;;;;;5032845;28;20462;-79
2022/04/10 06:02:26;;;;;;;7.23;5.40;;;;;;;;;;5032968;28;20410;-77
2022/04/10 06:04:52;;;;;;;5.20;4.33;;;;;;;;;;5032604;28;20952;-77
2022/04/10 06:07:18;;;;;;;5.97;4.90;;;;;;;;;;5032825;28;20537;-76
2022/04/10 06:09:44;;;;;;;8.33;5.40;;;;;;;;;;5032791;28;20546;-82
2022/04/10 06:12:10;;;;;;;8.37;4.63;;;;;;;;;;5032741;28;20471;-81
2022/04/10 06:14:36;;;;;;;5.43;4.60;;;;;;;;;;5032700;28;20553;-71
2022/04/10 06:17:02;;;;;;;6.90;4.57;;;;;;;;;;5031447;28;20890;-81
2022/04/10 06:19:28;;;;;;;7.10;4.60;;;;;;;;;;5032724;28;20415;-81
2022/04/10 06:21:54;;;;;;;6.20;4.73;;;;;;;;;;5032919;28;20765;-73
2022/04/10 06:24:21;;;;;;;5.37;4.83;;;;;;;;;;5032960;28;20501;-78
2022/04/10 06:26:49;;;;;;;6.13;5.07;;;;;;;;;;5032704;28;20425;-80
2022/04/10 06:29:15;;;;;;;7.47;5.17;;;;;;;;;;5032724;28;20900;-81
2022/04/10 06:31:42;;;;;;;6.60;4.80;;;;;;;;;;5032492;28;20471;-80
2022/04/10 06:34:08;;;;;;;7.13;4.57;;;;;;;;;;5032437;28;20895;-75
2022/04/10 06:36:34;;;;;;;5.90;4.83;;;;;;;;;;5032585;28;20447;-81
2022/04/10 06:39:00;;;;;;;5.70;5.10;;;;;;;;;;5032586;28;20402;-80
2022/04/10 06:41:26;;;;;;;5.40;4.33;;;;;;;;;;5032529;28;20418;-80
2022/04/10 06:43:52;;;;;;;6.10;4.93;;;;;;;;;;5031198;28;20805;-81
2022/04/10 06:46:18;;;;;;;7.00;4.00;;;;;;;;;;5032438;28;20421;-77
2022/04/10 06:48:44;;;;;;;4.77;4.27;;;;;;;;;;5035305;28;20424;-80
2022/04/10 06:51:10;;;;;;;5.40;4.90;;;;;;;;;;5035897;28;20564;-81
2022/04/10 06:53:36;;;;;;;10.63;4.33;;;;;;;;;;5035767;28;20408;-80
2022/04/10 06:56:02;;;;;;;8.40;4.93;;;;;;;;;;5034568;28;20407;-81
2022/04/10 06:58:28;;;;;;;6.67;4.47;;;;;;;;;;5035895;28;20407;-80
2022/04/10 07:00:54;;;;;;;6.87;4.57;;;;;;;;;;5035908;28;20412;-81
2022/04/10 07:03:20;;;;;;;9.07;4.60;;;;;;;;;;5035900;28;20435;-82
2022/04/10 07:05:48;;;;;;;4.83;3.80;;;;;;;;;;5035522;28;20470;-80
2022/04/10 07:08:15;;;;;;;5.40;4.30;;;;;;;;;;5035694;28;20473;-81
2022/04/10 07:10:41;;;;;;;5.47;4.33;;;;;;;;;;5035566;28;20458;-80
2022/04/10 07:13:07;;;;;;;11.03;4.90;;;;;;;;;;5035527;28;20411;-79
2022/04/10 07:15:33;;;;;;;7.40;5.37;;;;;;;;;;5035428;28;20453;-78
2022/04/10 07:18:00;;;;;;;6.13;4.83;;;;;;;;;;5034215;28;20473;-79
2022/04/10 07:20:27;;;;;;;8.47;4.40;;;;;;;;;;5035465;28;20425;-80
2022/04/10 07:25:37;;;;;;;6.30;4.90;;;;;;;;;;5035548;28;20437;-82
2022/04/10 07:28:04;;;;;;;4.93;4.30;;;;;;;;;;5035283;28;20423;-82
2022/04/10 07:30:30;;;;;;;8.03;4.40;;;;;;;;;;5035188;28;20399;-80
2022/04/10 07:32:57;;;;;;;5.20;4.57;;;;;;;;;;5033898;28;20434;-74
2022/04/10 07:35:24;;;;;;;7.20;5.27;;;;;;;;;;5033849;28;20408;-82
2022/04/10 07:37:51;;;;;;;7.13;4.80;;;;;;;;;;5035121;28;20871;-82
2022/04/10 07:40:19;;;;;;;4.70;4.20;;;;;;;;;;5034994;28;20897;-80
2022/04/10 07:42:45;;;;;;;10.17;5.00;;;;;;;;;;5035075;28;20792;-80
2022/04/10 07:47:59;;;;;;;9.00;4.40;;;;;;;;;;5035118;28;20399;-77
2022/04/10 07:50:25;;;;;;;7.73;5.10;;;;;;;;;;5034780;28;20507;-76
2022/04/10 07:52:51;;;;;;;5.73;4.33;;;;;;;;;;5034740;28;20418;-81
2022/04/10 07:55:17;;;;;;;5.93;4.80;;;;;;;;;;5034617;28;20438;-81
2022/04/10 07:57:43;;;;;;;8.63;5.10;;;;;;;;;;5034695;28;20766;-78
2022/04/10 08:00:09;;;;;;;5.00;4.33;;;;;;;;;;5034080;28;20410;-80
2022/04/10 08:02:37;;;;;;;6.60;5.00;;;;;;;;;;5033237;28;20454;-80
2022/04/10 08:05:03;;;;;;;5.13;4.33;;;;;;;;;;5034348;28;20470;-80
2022/04/10 08:07:30;;;;;;;6.07;4.73;;;;;;;;;;5033106;28;20425;-69
2022/04/10 08:09:55;;;;;;;5.70;4.30;;;;;;;;;;5033313;28;20411;-79
2022/04/10 08:12:23;;;;;;;6.63;4.93;;;;;;;;;;5033046;28;20532;-81
2022/04/10 08:14:49;;;;;;;7.93;4.50;;;;;;;;;;5034223;28;20878;-80
2022/04/10 08:17:15;;;;;;;4.87;4.30;;;;;;;;;;5032967;28;20480;-81
2022/04/10 08:19:41;;;;;;;7.77;5.50;;;;;;;;;;5034400;28;20403;-82
2022/04/10 08:22:07;;;;;;;5.53;4.93;;;;;;;;;;5034344;28;20486;-80
2022/04/10 08:24:33;;;;;;;6.63;4.97;;;;;;;;;;5034168;28;20505;-81
2022/04/10 08:26:59;;;;;;;7.77;4.87;;;;;;;;;;5034009;28;20394;-76
2022/04/10 08:29:26;;;;;;;8.63;5.30;;;;;;;;;;5034126;28;20438;-74
2022/04/10 08:31:52;;;;;;;7.57;4.63;;;;;;;;;;5033969;28;20791;-81
2022/04/10 08:34:18;;;;;;;6.90;5.20;;;;;;;;;;5032522;28;20480;-79
2022/04/10 08:36:44;;;;;;;5.20;4.07;;;;;;;;;;5034013;28;20506;-79
2022/04/10 08:39:10;;;;;;;8.60;5.53;;;;;;;;;;5032774;28;20461;-79
2022/04/10 08:41:39;;;;;;;5.20;4.10;;;;;;;;;;5032741;28;20498;-84
2022/04/10 08:44:06;;;;;;;7.50;5.00;;;;;;;;;;5033695;28;20400;-83
2022/04/10 08:46:33;;;;;;;6.60;4.17;;;;;;;;;;5033681;28;20403;-81
2022/04/10 08:49:00;;;;;;;5.33;4.17;;;;;;;;;;5032548;28;20415;-80
2022/04/10 08:51:27;;;;;;;6.20;4.53;;;;;;;;;;5033588;28;20457;-77
2022/04/10 08:53:56;;;;;;;4.90;3.80;;;;;;;;;;5033450;28;20430;-81
2022/04/10 08:56:23;;;;;;;6.27;4.30;;;;;;;;;;5033475;28;20739;-76
2022/04/10 08:58:52;;;;;;;6.70;4.83;;;;;;;;;;5033534;28;20414;-78
2022/04/10 09:01:19;;;;;;;5.47;4.47;;;;;;;;;;5033532;28;20858;-81
2022/04/10 09:03:46;;;;;;;6.40;4.50;;;;;;;;;;5033254;28;20862;-77
2022/04/10 09:06:12;;;;;;;5.20;4.70;;;;;;;;;;5033537;28;20472;-81
2022/04/10 09:08:38;;;;;;;5.70;4.63;;;;;;;;;;5033416;28;20403;-80
2022/04/10 09:11:05;;;;;;;7.50;4.00;;;;;;;;;;5032386;28;20533;-78
2022/04/10 09:13:32;;;;;;;9.00;4.90;;;;;;;;;;5033286;28;20407;-74
2022/04/10 09:16:21;;;;;;;6.50;4.50;;;;;;;;;;5033219;28;20494;-83
2022/04/10 09:18:50;;;;;;;4.30;3.60;;;;;;;;;;5034991;28;20415;-82
2022/04/10 09:21:17;;;;;;;5.77;4.70;;;;;;;;;;5033166;28;20474;-79
2022/04/10 09:23:46;;;;;;;6.30;4.13;;;;;;;;;;5037665;28;20422;-81
2022/04/10 09:26:13;;;;;;;5.90;4.10;;;;;;;;;;5033098;28;20399;-81
2022/04/10 09:28:42;;;;;;;4.50;3.83;;;;;;;;;;5033064;28;20410;-81
2022/04/10 09:31:29;;;;;;;8.40;4.40;;;;;;;;;;5032991;28;20454;-82
2022/04/10 09:33:55;;;;;;;7.53;4.53;;;;;;;;;;5033034;28;20460;-80
2022/04/10 09:36:30;;;;;;;6.67;3.87;;;;;;;;;;5032940;28;20482;-78
2022/04/10 09:38:56;;;;;;;4.30;3.50;;;;;;;;;;5033111;28;20417;-82
2022/04/10 09:41:22;;;;;;;7.30;3.80;;;;;;;;;;5032911;28;20406;-82
2022/04/10 09:43:48;;;;;;;4.63;4.23;;;;;;;;;;5033027;28;20406;-80
2022/04/10 09:46:14;;;;;;;7.43;4.50;;;;;;;;;;5031744;28;20502;-83
2022/04/10 09:48:40;;;;;;;4.07;3.60;;;;;;;;;;5033031;28;20403;-78
2022/04/10 09:51:06;;;;;;;7.07;3.90;;;;;;;;;;5031596;28;20510;-72
2022/04/10 09:53:33;;;;;;;4.63;3.20;;;;;;;;;;5032644;28;20920;-79
2022/04/10 09:56:00;;;;;;;5.17;3.80;;;;;;;;;;5033012;28;20410;-78
2022/04/10 09:58:26;;;;;;;6.93;4.03;;;;;;;;;;5032957;28;20504;-81
2022/04/10 10:00:54;;;;;;;7.00;3.60;;;;;;;;;;5032906;28;20411;-81
2022/04/10 10:03:36;;;;;;;6.03;3.20;;;;;;;;;;5031554;28;20458;-81
2022/04/10 10:06:02;;;;;;;4.60;3.83;;;;;;;;;;5032710;28;20422;-72
2022/04/10 10:08:28;;;;;;;3.80;2.90;;;;;;;;;;5031642;28;20405;-81
2022/04/10 10:10:56;;;;;;;4.60;3.50;;;;;;;;;;5032562;28;20575;-68
2022/04/10 10:13:26;;;;;;;3.70;3.20;;;;;;;;;;5032730;28;20465;-77
2022/04/10 10:15:54;;;;;;;9.20;3.60;;;;;;;;;;5032641;28;20488;-81
2022/04/10 10:18:21;;;;;;;5.53;3.17;;;;;;;;;;5032614;28;20494;-80
2022/04/10 10:20:48;;;;;;;4.10;3.70;;;;;;;;;;5032551;28;20889;-77
2022/04/10 10:23:14;;;;;;;6.67;3.43;;;;;;;;;;5034824;28;20948;-72
2022/04/10 10:25:45;;;;;;;6.63;3.50;;;;;;;;;;5036138;28;20471;-81
2022/04/10 10:28:13;;;;;;;4.60;3.30;;;;;;;;;;5036276;28;20477;-79
2022/04/10 10:30:43;;;;;;;4.40;3.20;;;;;;;;;;5036160;28;20423;-74
2022/04/10 10:33:18;;;;;;;5.67;3.20;;;;;;;;;;5036006;28;20426;-80
2022/04/10 10:35:48;;;;;;;5.50;3.60;;;;;;;;;;5036148;28;20425;-80
2022/04/10 10:38:21;;;;;;;5.20;3.90;;;;;;;;;;5034960;28;20421;-77
2022/04/10 10:40:48;;;;;;;5.60;3.80;;;;;;;;;;5036130;28;20764;-80
2022/04/10 10:43:19;;;;;;;8.43;4.50;;;;;;;;;;5036117;28;20408;-81
2022/04/10 10:45:45;;;;;;;6.33;4.33;;;;;;;;;;5036022;28;20414;-76
2022/04/10 10:48:30;;;;;;;7.20;4.63;;;;;;;;;;5035937;28;20410;-80
2022/04/10 10:51:00;;;;;;;7.33;4.80;;;;;;;;;;5036010;28;20886;-74
2022/04/10 10:53:44;;;;;;;5.77;4.93;;;;;;;;;;5035838;28;20418;-81
2022/04/10 10:56:20;;;;;;;8.23;4.90;;;;;;;;;;5035928;28;20826;-80
2022/04/10 10:58:50;;;;;;;7.00;4.63;;;;;;;;;;5036019;28;20410;-80
2022/04/10 11:01:20;;;;;;;8.90;5.37;;;;;;;;;;5034622;28;20748;-73
2022/04/10 11:03:59;;;;;;;5.90;5.00;;;;;;;;;;5035574;28;20553;-78
2022/04/10 11:06:25;;;;;;;6.57;5.17;;;;;;;;;;5035786;28;20418;-70
2022/04/10 11:08:52;;;;;;;8.60;5.63;;;;;;;;;;5035667;28;20425;-78
2022/04/10 11:11:19;;;;;;;7.17;4.13;;;;;;;;;;5035575;28;20469;-81
2022/04/10 11:13:48;;;;;;;7.90;4.17;;;;;;;;;;5035423;28;20406;-75
2022/04/10 11:16:14;;;;;;;5.07;3.60;;;;;;;;;;5035384;28;20468;-81
2022/04/10 11:18:42;;;;;;;6.23;4.10;;;;;;;;;;5035382;28;20769;-78
2022/04/10 11:21:18;;;;;;;9.90;3.90;;;;;;;;;;5035354;28;20423;-79
2022/04/10 11:23:47;;;;;;;7.20;3.83;;;;;;;;;;5035185;28;20448;-79
2022/04/10 11:26:14;;;;;;;6.17;4.40;;;;;;;;;;5035280;28;20754;-81
2022/04/10 11:29:02;;;;;;;5.23;3.73;;;;;;;;;;5035306;28;20981;-81
2022/04/10 11:31:28;;;;;;;7.47;4.63;;;;;;;;;;5035159;28;20461;-80
2022/04/10 11:33:56;;;;;;;6.83;4.30;;;;;;;;;;5032811;28;20512;-77
2022/04/10 11:36:22;;;;;;;3.87;3.20;;;;;;;;;;5035290;28;20568;-77
2022/04/10 11:39:07;;;;;;;5.23;3.30;;;;;;;;;;5035228;28;20415;-80
2022/04/10 11:41:34;;;;;;;4.67;4.00;;;;;;;;;;5035151;28;20456;-80
2022/04/10 11:44:00;;;;;;;5.00;3.70;;;;;;;;;;5035045;28;20402;-82
2022/04/10 11:46:26;;;;;;;4.87;3.50;;;;;;;;;;5034933;28;20913;-75
2022/04/10 11:48:55;;;;;;;4.07;3.67;;;;;;;;;;5035045;28;20406;-77
2022/04/10 11:51:21;;;;;;;5.07;3.90;;;;;;;;;;5034878;28;20454;-78
2022/04/10 11:53:54;;;;;;;4.57;3.40;;;;;;;;;;5033462;28;20434;-80
2022/04/10 11:56:21;;;;;;;4.70;3.77;;;;;;;;;;5034920;28;20801;-79
2022/04/10 11:58:48;;;;;;;4.90;3.67;;;;;;;;;;5034848;28;20456;-79
2022/04/10 12:01:14;;;;;;;4.90;3.90;;;;;;;;;;5034699;28;20433;-71
2022/04/10 12:03:41;;;;;;;5.70;4.40;;;;;;;;;;5034422;28;20407;-80
2022/04/10 12:06:09;;;;;;;4.67;4.27;;;;;;;;;;5033360;28;20519;-76
2022/04/10 12:08:35;;;;;;;3.93;3.63;;;;;;;;;;5034658;28;20399;-77
2022/04/10 12:11:02;;;;;;;5.50;4.93;;;;;;;;;;5034446;28;20976;-80
2022/04/10 12:13:29;;;;;;;5.80;4.93;;;;;;;;;;5034354;28;20473;-80
2022/04/10 12:16:01;;;;;;;6.63;4.70;;;;;;;;;;5034209;28;20410;-80
2022/04/10 12:18:27;;;;;;;7.23;5.30;;;;;;;;;;5034428;28;20941;-79
2022/04/10 12:21:01;;;;;;;5.83;3.70;;;;;;;;;;5034230;28;20913;-77
2022/04/10 12:23:27;;;;;;;6.80;3.53;;;;;;;;;;5034220;28;20901;-71
2022/04/10 12:25:57;;;;;;;4.27;3.87;;;;;;;;;;5034213;28;20418;-81
2022/04/10 12:28:23;;;;;;;2.80;2.60;;;;;;;;;;5034222;28;20402;-67
2022/04/10 12:30:49;;;;;;;4.70;3.37;;;;;;;;;;5034131;28;20508;-78
2022/04/10 12:33:16;;;;;;;5.20;4.17;;;;;;;;;;5033947;28;20917;-69
2022/04/10 12:35:43;;;;;;;3.67;3.33;;;;;;;;;;5034031;28;20402;-82
2022/04/10 12:38:11;;;;;;;4.23;3.60;;;;;;;;;;5032559;28;20411;-75
2022/04/10 12:40:39;;;;;;;6.70;4.30;;;;;;;;;;5034020;28;20956;-80
2022/04/10 12:43:06;;;;;;;6.17;4.40;;;;;;;;;;5033894;28;20890;-82
2022/04/10 12:45:33;;;;;;;4.40;4.00;;;;;;;;;;5032382;28;20549;-80
2022/04/10 12:48:00;;;;;;;4.83;4.33;;;;;;;;;;5032426;28;20403;-81
2022/04/10 12:50:27;;;;;;;6.10;4.77;;;;;;;;;;5033486;28;20399;-80
2022/04/10 12:52:57;;;;;;;6.53;5.10;;;;;;;;;;5033620;28;20777;-81
2022/04/10 12:55:23;;;;;;;5.80;3.87;;;;;;;;;;5033510;28;20434;-82
2022/04/10 12:58:07;;;;;;;6.07;3.57;;;;;;;;;;5033610;28;20937;-83
2022/04/10 13:00:34;;;;;;;4.43;3.50;;;;;;;;;;5033614;28;20501;-82
2022/04/10 13:03:18;;;;;;;4.60;3.83;;;;;;;;;;5033593;28;20900;-73
2022/04/10 13:05:55;;;;;;;4.13;3.73;;;;;;;;;;5032047;28;20569;-81
2022/04/10 13:08:23;;;;;;;6.13;3.97;;;;;;;;;;5033576;28;20519;-81
2022/04/10 13:10:50;;;;;;;3.97;3.67;;;;;;;;;;5031936;28;20482;-81
2022/04/10 13:13:16;;;;;;;4.93;3.10;;;;;;;;;;5033248;28;20476;-78
2022/04/10 13:15:42;;;;;;;4.03;3.20;;;;;;;;;;5033114;28;20396;-79
2022/04/10 13:18:09;;;;;;;3.90;3.20;;;;;;;;;;5033358;28;20501;-81
2022/04/10 13:20:38;;;;;;;5.17;3.23;;;;;;;;;;5033250;28;20399;-80
2022/04/10 13:23:04;;;;;;;5.43;4.10;;;;;;;;;;5033184;28;20394;-81
2022/04/10 13:25:32;;;;;;;4.53;3.63;;;;;;;;;;5033112;28;20433;-81
2022/04/10 13:27:59;;;;;;;4.80;4.20;;;;;;;;;;5033132;28;20429;-82
2022/04/10 13:30:25;;;;;;;6.27;4.40;;;;;;;;;;5033208;28;20480;-75
2022/04/10 13:32:51;;;;;;;9.93;6.17;;;;;;;;;;5032967;28;20465;-80
2022/04/10 13:35:18;;;;;;;8.83;4.40;;;;;;;;;;5031764;28;20497;-71
2022/04/10 13:37:46;;;;;;;7.37;5.60;;;;;;;;;;5033093;28;20438;-80
2022/04/10 13:40:15;;;;;;;5.40;4.27;;;;;;;;;;5033028;28;20402;-67
2022/04/10 13:42:43;;;;;;;6.10;4.57;;;;;;;;;;5033107;28;20402;-75
2022/04/10 13:45:09;;;;;;;4.77;4.00;;;;;;;;;;5032968;28;20402;-77
2022/04/10 13:47:35;;;;;;;6.47;4.10;;;;;;;;;;5032994;28;20431;-80
2022/04/10 13:50:01;;;;;;;6.23;4.07;;;;;;;;;;5032964;28;20496;-80
2022/04/10 13:52:27;;;;;;;7.70;4.40;;;;;;;;;;5032764;28;20466;-74
2022/04/10 13:54:53;;;;;;;5.90;4.60;;;;;;;;;;5032932;28;20418;-80
2022/04/10 13:57:20;;;;;;;5.23;3.70;;;;;;;;;;5033808;28;20406;-77
2022/04/10 13:59:46;;;;;;;7.13;4.03;;;;;;;;;;5035704;28;20449;-81
2022/04/10 14:02:13;;;;;;;6.13;4.57;;;;;;;;;;5036959;28;20390;-79
2022/04/10 14:04:39;;;;;;;10.17;5.40;;;;;;;;;;5036768;28;20476;-80
2022/04/10 14:07:05;;;;;;;6.27;4.70;;;;;;;;;;5036896;28;20398;-74
2022/04/10 14:09:32;;;;;;;4.63;4.00;;;;;;;;;;5036743;28;20919;-80
2022/04/10 14:11:58;;;;;;;6.93;4.03;;;;;;;;;;5036780;28;20473;-79
2022/04/10 14:14:24;;;;;;;4.30;3.60;;;;;;;;;;5036566;28;20411;-77
2022/04/10 14:16:50;;;;;;;6.10;4.90;;;;;;;;;;5036728;28;20490;-81
2022/04/10 14:19:16;;;;;;;4.73;4.30;;;;;;;;;;5035388;28;20414;-81
2022/04/10 14:21:42;;;;;;;5.53;4.63;;;;;;;;;;5035398;28;20426;-79
2022/04/10 14:24:08;;;;;;;6.43;3.87;;;;;;;;;;5035218;28;20434;-80
2022/04/10 14:26:34;;;;;;;4.63;4.10;;;;;;;;;;5035345;28;20430;-80
2022/04/10 14:29:00;;;;;;;4.43;3.60;;;;;;;;;;5036373;28;20418;-81
2022/04/10 14:31:26;;;;;;;3.93;3.53;;;;;;;;;;5036391;28;20474;-81
2022/04/10 14:33:52;;;;;;;3.50;3.20;;;;;;;;;;5034995;28;20523;-78
2022/04/10 14:36:18;;;;;;;5.47;3.77;;;;;;;;;;5036320;28;20540;-69
2022/04/10 14:38:44;;;;;;;5.80;3.90;;;;;;;;;;5036362;28;20406;-79
2022/04/10 14:41:10;;;;;;;3.70;3.37;;;;;;;;;;5036350;28;20496;-81
2022/04/10 14:43:38;;;;;;;4.20;3.80;;;;;;;;;;5036189;28;20414;-81
2022/04/10 14:46:04;;;;;;;8.33;3.30;;;;;;;;;;5034934;28;20514;-79
2022/04/10 14:48:30;;;;;;;5.67;3.23;;;;;;;;;;5036062;28;20497;-80